Time;durP1;ratioP1;P1;durP2;ratioP2;P2;SDS_P1;SDS_P2;PMS_P1;PMS_P2;Temp;Humidity;BMP_temperature;BMP_pressure;BME280_temperature;BME280_humidity;BME280_pressure;Samples;Min_cycle;Max_cycle;Signal;HPM_P1;HPM_P2
2022/04/08 00:03:07;;;;;;;4.20;1.97;;;11.90;92.20;;;10.14;68.42;98201.53;10336748;28;96479;-79
2022/04/08 00:08:11;;;;;;;3.13;2.00;;;11.80;92.90;;;10.24;68.20;98190.47;10347768;28;96548;-79
2022/04/08 00:13:15;;;;;;;2.60;1.70;;;11.90;93.30;;;10.32;67.87;98198.19;10377679;28;96545;-79
2022/04/08 00:18:19;;;;;;;6.77;3.47;;;11.90;93.60;;;10.38;67.68;98215.09;10306462;28;98493;-80
2022/04/08 00:23:22;;;;;;;6.73;4.03;;;12.00;94.10;;;10.33;68.26;98229.03;10313319;28;96482;-79
2022/04/08 00:28:25;;;;;;;6.87;3.87;;;11.90;94.30;;;10.23;68.76;98241.94;10354853;28;96782;-79
2022/04/08 00:33:35;;;;;;;6.83;3.23;;;11.90;95.00;;;10.15;69.46;98244.81;10351472;28;97090;-79
2022/04/08 00:38:38;;;;;;;6.03;3.63;;;11.80;95.20;;;10.09;69.54;98240.38;10351381;28;96749;-80
2022/04/08 00:43:42;;;;;;;6.70;3.07;;;11.80;95.30;;;10.05;70.11;98197.50;10389690;28;96531;-80
2022/04/08 00:48:45;;;;;;;7.53;4.17;;;11.70;95.90;;;10.03;70.23;98210.19;10365524;28;98297;-79
2022/04/08 00:53:48;;;;;;;10.37;4.87;;;11.70;96.30;;;10.02;70.42;98202.44;10379971;28;96749;-80
2022/04/08 00:58:51;;;;;;;5.17;3.30;;;11.60;96.00;;;9.96;70.75;98229.81;10349529;28;96590;-79
2022/04/08 01:03:59;;;;;;;7.57;3.73;;;11.60;96.00;;;9.83;70.56;98236.78;10363182;28;96530;-81
2022/04/08 01:09:02;;;;;;;7.10;3.90;;;11.50;96.50;;;9.68;70.90;98243.41;10357226;28;96475;-78
2022/04/08 01:14:13;;;;;;;6.93;3.40;;;11.40;96.80;;;9.49;71.70;98239.78;10374697;28;96797;-79
2022/04/08 01:19:16;;;;;;;3.67;2.63;;;11.30;96.90;;;9.36;72.15;98248.59;10371081;28;97307;-80
2022/04/08 01:24:22;;;;;;;4.70;2.60;;;11.20;97.40;;;9.34;72.64;98275.28;10332782;28;96719;-79
2022/04/08 01:29:25;;;;;;;8.83;3.93;;;11.10;98.40;;;9.38;73.23;98273.88;10292657;28;96751;-79
2022/04/08 01:34:28;;;;;;;11.13;5.40;;;11.10;99.80;;;9.44;73.59;98301.38;10315602;28;96570;-79
2022/04/08 01:39:31;;;;;;;6.60;2.93;;;11.10;99.70;;;9.52;73.61;98303.00;10328477;28;96687;-79
2022/04/08 01:44:36;;;;;;;5.63;3.57;;;11.20;99.90;;;9.59;73.14;98309.09;10324171;28;96682;-80
2022/04/08 01:49:38;;;;;;;7.77;3.90;;;11.20;99.90;;;9.61;73.03;98312.38;10327826;28;97462;-79
2022/04/08 01:54:41;;;;;;;3.23;1.87;;;11.20;99.80;;;9.64;72.98;98326.00;10319897;28;97180;-79
2022/04/08 01:59:44;;;;;;;4.53;2.43;;;11.30;99.50;;;9.70;72.67;98315.59;10305345;28;96675;-79
2022/04/08 02:04:47;;;;;;;5.53;2.70;;;11.30;99.90;;;9.78;72.51;98304.78;10343785;28;96504;-79
2022/04/08 02:09:50;;;;;;;5.17;2.60;;;11.40;99.90;;;9.96;71.66;98328.00;10330867;28;97809;-79
2022/04/08 02:14:54;;;;;;;3.27;2.10;;;11.50;99.50;;;10.20;70.37;98332.59;10397016;28;96431;-80
2022/04/08 02:19:57;;;;;;;3.23;2.00;;;11.60;99.00;;;10.40;69.38;98335.19;10315105;28;96860;-79
2022/04/08 02:25:01;;;;;;;3.30;1.90;;;11.80;98.60;;;10.81;67.08;98323.31;10319154;28;96578;-79
2022/04/08 02:30:05;;;;;;;3.20;1.90;;;12.10;97.40;;;11.07;65.80;98319.63;10371406;28;96484;-80
2022/04/08 02:35:09;;;;;;;3.97;1.97;;;12.40;96.50;;;11.29;64.05;98331.53;10358756;28;96709;-79
2022/04/08 02:40:12;;;;;;;2.70;1.43;;;12.60;95.00;;;11.45;63.02;98322.16;10339777;28;96532;-79
2022/04/08 02:45:17;;;;;;;2.33;1.10;;;12.80;93.80;;;11.68;62.38;98345.47;10306126;28;97781;-79
2022/04/08 02:50:20;;;;;;;1.77;1.23;;;12.90;93.10;;;11.83;62.30;98345.97;10334292;28;96733;-79
2022/04/08 02:55:22;;;;;;;2.93;1.13;;;13.10;92.80;;;11.86;61.81;98361.47;10347459;28;96585;-79
2022/04/08 03:00:25;;;;;;;3.70;1.20;;;13.20;92.40;;;11.80;61.63;98371.13;10375442;28;96694;-79
2022/04/08 03:05:28;;;;;;;3.13;1.30;;;13.20;92.00;;;11.86;62.08;98385.44;10340075;28;96938;-79
2022/04/08 03:10:31;;;;;;;12.67;5.60;;;13.20;92.40;;;11.95;62.76;98388.63;10353167;28;96676;-80
2022/04/08 03:15:34;;;;;;;4.83;3.17;;;13.30;93.20;;;11.98;64.01;98390.84;10356252;28;96712;-79
2022/04/08 03:20:37;;;;;;;1.57;0.57;;;13.30;94.20;;;11.90;65.03;98391.97;10328579;28;96549;-79
2022/04/08 03:25:40;;;;;;;0.67;0.53;;;13.20;95.90;;;11.81;67.34;98419.88;10356092;28;96465;-79
2022/04/08 03:30:43;;;;;;;1.17;0.63;;;13.10;97.60;;;11.60;69.85;98454.84;10361762;28;96489;-79
2022/04/08 03:35:46;;;;;;;2.70;0.60;;;13.00;99.90;;;11.33;72.19;98473.63;10381392;28;98292;-79
2022/04/08 03:40:49;;;;;;;0.60;0.50;;;12.70;99.90;;;11.04;75.45;98477.72;10308362;28;96658;-80
2022/04/08 03:45:51;;;;;;;1.73;0.60;;;12.50;99.90;;;10.78;77.28;98510.50;10365025;28;96940;-79
2022/04/08 03:50:54;;;;;;;2.70;1.57;;;12.20;99.90;;;10.56;79.05;98525.94;10353807;28;96425;-79
2022/04/08 03:55:57;;;;;;;11.47;5.93;;;11.90;99.90;;;10.41;80.69;98538.59;10359138;28;97680;-80
2022/04/08 04:01:00;;;;;;;1.00;0.77;;;11.80;99.90;;;10.29;81.72;98534.94;10359872;28;96745;-81
2022/04/08 04:06:03;;;;;;;1.23;0.60;;;11.60;99.90;;;10.20;79.06;98521.06;10337496;28;96640;-79
2022/04/08 04:11:06;;;;;;;1.87;1.00;;;11.50;99.90;;;10.11;77.10;98504.53;10355063;28;96687;-79
2022/04/08 04:16:10;;;;;;;0.60;0.30;;;11.40;99.90;;;10.01;74.17;98505.94;10350666;28;96730;-80
2022/04/08 04:21:13;;;;;;;1.50;0.40;;;11.40;99.90;;;10.01;72.45;98519.22;10387983;28;96507;-81
2022/04/08 04:26:16;;;;;;;0.70;0.30;;;11.30;99.90;;;10.05;70.81;98513.31;10361935;28;97757;-81
2022/04/08 04:31:19;;;;;;;0.93;0.20;;;11.40;99.90;;;10.13;68.63;98515.72;10342423;28;97116;-81
2022/04/08 04:36:22;;;;;;;1.50;0.20;;;11.40;99.90;;;10.32;63.13;98538.03;10338235;28;96452;-79
2022/04/08 04:41:25;;;;;;;2.17;0.40;;;11.60;94.90;;;10.58;58.57;98539.00;10358342;28;96972;-79
2022/04/08 04:46:29;;;;;;;0.93;0.40;;;11.80;91.60;;;10.76;56.50;98555.09;10359423;28;96596;-80
2022/04/08 04:51:32;;;;;;;0.30;0.10;;;12.00;86.80;;;10.81;55.23;98557.94;10332280;28;96510;-79
2022/04/08 04:56:35;;;;;;;2.57;0.30;;;12.10;83.20;;;10.85;51.47;98555.66;10339992;28;96883;-79
2022/04/08 05:01:38;;;;;;;0.80;0.20;;;12.10;74.00;;;10.96;50.54;98533.75;10358848;28;96572;-80
2022/04/08 05:06:41;;;;;;;1.60;0.50;;;12.20;72.30;;;11.04;50.38;98540.69;10357015;28;96969;-79
2022/04/08 05:11:44;;;;;;;1.90;0.50;;;12.30;71.50;;;11.11;50.36;98560.06;10366616;28;96831;-79
2022/04/08 05:16:47;;;;;;;2.50;0.40;;;12.40;71.40;;;11.17;49.91;98553.91;10343760;28;96608;-80
2022/04/08 05:21:52;;;;;;;2.43;0.63;;;12.40;69.50;;;11.21;48.91;98553.25;10350999;28;96757;-81
2022/04/08 05:26:55;;;;;;;0.60;0.20;;;12.40;68.90;;;11.24;48.99;98578.63;10333609;28;96469;-79
2022/04/08 05:31:58;;;;;;;1.53;0.40;;;12.50;69.50;;;11.24;49.56;98584.75;10328250;28;96651;-80
2022/04/08 05:37:01;;;;;;;2.37;0.40;;;12.50;68.60;;;11.24;49.00;98615.84;10325790;28;96887;-79
2022/04/08 05:42:05;;;;;;;2.67;0.40;;;12.40;67.00;;;11.21;48.92;98601.13;10336544;28;96527;-80
2022/04/08 05:47:08;;;;;;;30.80;13.30;;;12.50;68.00;;;11.21;47.78;98616.25;10324596;28;96546;-79
2022/04/08 05:52:12;;;;;;;5.63;1.10;;;12.40;66.30;;;11.20;47.81;98614.63;10361086;28;97093;-80
2022/04/08 05:57:19;;;;;;;1.37;0.60;;;12.40;65.30;;;11.24;47.17;98626.47;10353837;28;96549;-80
2022/04/08 06:02:22;;;;;;;5.40;0.57;;;12.50;65.70;;;11.34;47.52;98626.88;10357261;28;96608;-80
2022/04/08 06:07:25;;;;;;;2.63;0.50;;;12.60;64.90;;;11.46;45.69;98635.81;10341940;28;96604;-80
2022/04/08 06:12:28;;;;;;;1.70;0.47;;;12.70;62.50;;;11.53;45.94;98652.56;10354839;28;98508;-79
2022/04/08 06:17:39;;;;;;;2.83;0.60;;;12.80;63.00;;;11.51;45.97;98670.59;10355305;28;97521;-81
2022/04/08 06:22:42;;;;;;;2.03;0.57;;;12.80;62.60;;;11.53;45.00;98668.50;10311256;28;96949;-81
2022/04/08 06:27:56;;;;;;;3.77;0.87;;;12.80;61.20;;;11.51;45.10;98659.94;10334045;28;98372;-79
2022/04/08 06:32:59;;;;;;;4.17;0.60;;;12.80;61.20;;;11.49;44.38;98677.94;10296525;28;96538;-81
2022/04/08 06:38:05;;;;;;;3.17;0.70;;;12.70;60.20;;;11.55;43.90;98699.41;10322007;28;96522;-79
2022/04/08 06:43:09;;;;;;;1.83;0.57;;;12.80;59.40;;;11.58;44.41;98707.78;10357202;28;96564;-80
2022/04/08 06:48:12;;;;;;;2.73;0.50;;;12.80;60.20;;;11.52;44.58;98701.47;10366894;28;98048;-80
2022/04/08 06:53:15;;;;;;;2.60;1.13;;;12.70;60.10;;;11.53;44.33;98696.97;10319443;28;96421;-80
2022/04/08 06:58:21;;;;;;;1.67;0.57;;;12.70;59.60;;;11.78;44.32;98697.88;10378039;28;96559;-81
2022/04/08 07:03:25;;;;;;;2.13;0.90;;;12.90;59.70;;;12.13;41.78;98673.56;10337383;28;96763;-81
2022/04/08 07:08:27;;;;;;;3.63;0.40;;;13.30;56.80;;;12.48;40.59;98708.56;10340583;28;96589;-80
2022/04/08 07:13:30;;;;;;;2.53;0.63;;;13.60;55.50;;;12.81;40.89;98707.47;10361517;28;96599;-80
2022/04/08 07:18:34;;;;;;;1.37;0.53;;;13.90;55.90;;;13.08;39.02;98729.38;10368686;28;96652;-80
2022/04/08 07:23:36;;;;;;;2.37;0.60;;;14.20;53.90;;;13.24;39.57;98730.69;10379350;28;96507;-82
2022/04/08 07:28:39;;;;;;;2.37;0.50;;;14.40;54.00;;;13.23;39.30;98737.06;10392374;28;96540;-80
2022/04/08 07:33:43;;;;;;;2.25;0.50;;;14.40;54.50;;;13.36;40.92;98747.59;10372808;28;98045;-79
2022/04/08 07:38:47;;;;;;;2.88;0.47;;;14.50;56.00;;;13.48;40.34;98764.50;10338472;28;96580;-79
2022/04/08 07:43:50;;;;;;;3.95;0.60;;;14.60;55.20;;;13.85;40.44;98760.00;10351750;28;97884;-81
2022/04/08 07:48:53;;;;;;;1.35;0.40;;;14.70;55.50;;;14.37;37.95;98754.16;10379202;28;96536;-79
2022/04/08 07:53:56;;;;;;;3.20;0.45;;;15.00;53.20;;;14.86;37.85;98770.94;10363890;28;97559;-80
2022/04/08 07:58:59;;;;;;;1.58;0.50;;;15.20;54.00;;;15.22;34.63;98778.75;10349621;28;96590;-82
2022/04/08 08:04:02;;;;;;;3.78;0.40;;;15.40;50.20;;;15.26;33.45;98779.94;10322780;28;96552;-82
2022/04/08 08:09:04;;;;;;;1.38;0.35;;;15.50;48.10;;;15.54;33.00;98783.78;10362665;28;96867;-82
2022/04/08 08:14:07;;;;;;;2.38;0.70;;;15.70;47.70;;;15.43;32.19;98784.59;10377780;28;96456;-81
2022/04/08 08:19:11;;;;;;;2.10;0.60;;;15.70;47.10;;;15.36;33.30;98789.25;10362834;28;96554;-81
2022/04/08 08:24:14;;;;;;;2.08;0.63;;;15.50;48.60;;;15.53;32.24;98800.84;10344901;28;96663;-83
2022/04/08 08:29:17;;;;;;;6.60;1.55;;;15.70;47.10;;;15.67;32.95;98791.59;10351563;28;96600;-80
2022/04/08 08:34:20;;;;;;;10.32;6.63;;;15.80;47.90;;;15.80;33.07;98801.22;10341903;28;96540;-82
2022/04/08 08:39:22;;;;;;;2.40;0.50;;;16.00;48.00;;;15.60;32.21;98785.50;10337418;28;96352;-81
2022/04/08 08:44:25;;;;;;;1.50;0.30;;;16.00;46.80;;;15.29;33.04;98788.53;10392797;28;96510;-81
2022/04/08 08:49:31;;;;;;;2.05;0.40;;;16.00;47.30;;;15.16;32.69;98817.16;10344006;28;96622;-81
2022/04/08 08:54:35;;;;;;;3.53;0.55;;;16.00;46.50;;;14.98;31.55;98836.78;10364224;28;96525;-80
2022/04/08 08:59:38;;;;;;;1.02;0.40;;;15.90;44.70;;;14.75;31.78;98838.56;10371817;28;98311;-82
2022/04/08 09:04:42;;;;;;;4.20;0.52;;;15.80;45.20;;;14.70;33.13;98834.75;10399804;28;96475;-80
2022/04/08 09:09:54;;;;;;;0.73;0.40;;;15.70;46.60;;;14.84;34.09;98821.16;10373761;28;96506;-80
2022/04/08 09:14:59;;;;;;;1.08;0.40;;;15.80;47.40;;;15.03;34.98;98828.06;10343070;28;96579;-80
2022/04/08 09:20:02;;;;;;;4.03;0.75;;;15.90;48.40;;;15.16;32.97;98833.19;10355842;28;96653;-81
2022/04/08 09:25:14;;;;;;;3.08;0.77;;;16.10;46.30;;;15.36;32.71;98834.75;10383250;28;96466;-81
2022/04/08 09:30:20;;;;;;;5.85;0.30;;;16.30;45.40;;;15.53;31.79;98838.34;10393022;28;96681;-81
2022/04/08 09:35:26;;;;;;;2.90;1.05;;;16.40;44.30;;;15.74;31.90;98836.97;10383697;28;96536;-80
2022/04/08 09:40:37;;;;;;;2.17;0.40;;;16.70;45.30;;;16.11;31.05;98837.50;10371314;28;98108;-80
2022/04/08 09:45:40;;;;;;;2.83;0.50;;;16.90;44.20;;;16.40;29.41;98850.94;10387978;28;96492;-81
2022/04/08 09:50:48;;;;;;;0.82;0.52;;;17.00;43.10;;;16.81;29.47;98823.03;10357252;28;96461;-81
2022/04/08 09:55:51;;;;;;;2.03;0.40;;;17.30;43.20;;;17.45;30.20;98828.09;10356441;28;97170;-81
2022/04/08 10:00:54;;;;;;;1.92;0.40;;;17.90;44.20;;;18.00;28.38;98809.28;10357577;28;96368;-81
2022/04/08 10:05:57;;;;;;;2.20;0.40;;;18.50;42.80;;;18.51;28.39;98804.47;10364755;28;98306;-80
2022/04/08 10:11:13;;;;;;;1.63;0.38;;;19.10;42.10;;;18.73;27.29;98798.28;10377470;28;97154;-81
2022/04/08 10:16:20;;;;;;;1.48;0.40;;;19.30;40.90;;;18.33;26.54;98805.63;10341106;28;96791;-81
2022/04/08 10:21:23;;;;;;;0.85;0.30;;;19.10;39.80;;;18.52;26.70;98834.88;10350716;28;96459;-80
2022/04/08 10:26:27;;;;;;;2.95;0.30;;;19.20;39.40;;;18.53;25.14;98852.66;10385024;28;96970;-80
2022/04/08 10:31:30;;;;;;;1.67;0.50;;;19.30;38.60;;;17.94;26.04;98901.66;10332551;28;96606;-80
2022/04/08 10:36:44;;;;;;;1.35;0.20;;;18.90;38.70;;;17.43;27.44;98918.84;10318828;28;96808;-81
2022/04/08 10:42:00;;;;;;;4.25;0.70;;;18.50;39.80;;;17.46;27.41;98910.31;10380488;28;96561;-80
2022/04/08 10:47:14;;;;;;;1.88;0.43;;;18.70;40.00;;;17.46;27.63;98905.75;10380036;28;96505;-81
2022/04/08 10:52:27;;;;;;;3.08;0.63;;;18.60;39.90;;;17.60;27.65;98911.59;10380125;28;96514;-80
2022/04/08 10:57:34;;;;;;;1.48;0.50;;;18.70;39.40;;;17.94;27.52;98890.13;10349880;28;96558;-82
2022/04/08 11:02:40;;;;;;;2.40;0.43;;;19.00;40.50;;;18.37;27.55;98883.94;10298840;28;96466;-81
2022/04/08 11:07:46;;;;;;;1.63;0.30;;;19.20;40.30;;;18.90;27.59;98859.00;10356349;28;96735;-82
2022/04/08 11:12:51;;;;;;;2.92;0.55;;;19.60;40.30;;;19.25;27.05;98863.06;10371215;28;97845;-81
2022/04/08 11:17:55;;;;;;;3.00;0.43;;;20.00;40.30;;;19.23;26.72;98881.38;10363054;28;96536;-81
2022/04/08 11:22:58;;;;;;;1.65;0.77;;;20.00;39.70;;;19.42;26.29;98877.22;10396848;28;96644;-81
2022/04/08 11:28:09;;;;;;;0.60;0.30;;;20.20;38.50;;;19.14;26.06;98889.13;10361492;28;97497;-81
2022/04/08 11:33:15;;;;;;;1.35;0.45;;;19.90;38.90;;;19.23;27.18;98895.66;10338736;28;96484;-81
2022/04/08 11:38:23;;;;;;;2.80;0.52;;;20.10;39.90;;;18.87;27.14;98882.91;10371218;28;96609;-80
2022/04/08 11:43:26;;;;;;;0.73;0.40;;;19.90;39.50;;;18.34;27.64;98890.63;10359592;28;96556;-81
2022/04/08 11:48:28;;;;;;;3.30;0.50;;;19.50;39.90;;;17.73;28.91;98872.88;10359845;28;96594;-81
2022/04/08 11:53:43;;;;;;;2.10;0.43;;;19.00;40.90;;;17.17;29.92;98875.47;10379849;28;96773;-80
2022/04/08 11:59:01;;;;;;;1.02;0.30;;;18.40;42.20;;;16.60;31.41;98880.81;10363126;28;96920;-81
2022/04/08 12:04:09;;;;;;;3.40;0.60;;;17.90;43.10;;;16.20;31.70;98865.56;10340331;28;96538;-81
2022/04/08 12:09:15;;;;;;;1.17;0.30;;;17.50;43.80;;;15.88;32.78;98875.03;10369757;28;96591;-80
2022/04/08 12:14:19;;;;;;;1.42;0.38;;;17.20;44.50;;;15.67;33.11;98871.09;10355461;28;96580;-79
2022/04/08 12:19:23;;;;;;;1.08;0.30;;;17.00;44.80;;;15.50;33.88;98861.06;10338355;28;96511;-80
2022/04/08 12:24:49;;;;;;;3.05;0.60;;;16.80;45.20;;;15.50;34.77;98852.22;10344010;28;96609;-80
2022/04/08 12:30:09;;;;;;;2.00;0.82;;;16.80;46.00;;;15.62;34.23;98847.69;10380266;28;96641;-81
2022/04/08 12:35:12;;;;;;;2.08;0.40;;;16.90;45.90;;;15.87;34.45;98838.59;10361630;28;96735;-80
2022/04/08 12:40:15;;;;;;;1.17;0.30;;;17.10;46.10;;;16.12;34.96;98827.59;10320578;28;96712;-80
2022/04/08 12:45:18;;;;;;;2.58;0.45;;;17.20;46.50;;;16.37;34.50;98817.38;10343552;28;97001;-80
2022/04/08 12:50:21;;;;;;;1.70;0.40;;;17.50;46.40;;;16.49;35.24;98811.97;10335863;28;96560;-80
2022/04/08 12:55:26;;;;;;;1.52;0.70;;;17.70;47.10;;;16.47;34.75;98819.44;10352112;28;98383;-81
2022/04/08 13:00:29;;;;;;;2.97;0.88;;;17.70;46.90;;;16.44;35.89;98806.53;10348989;28;96593;-81
2022/04/08 13:05:33;;;;;;;1.40;0.70;;;17.70;47.40;;;16.67;35.73;98792.16;10339412;28;96588;-81
2022/04/08 13:10:37;;;;;;;2.30;0.75;;;17.80;47.50;;;16.71;35.41;98778.06;10377426;28;96620;-81
2022/04/08 13:15:41;;;;;;;4.45;1.80;;;17.90;47.30;;;16.55;35.62;98776.13;10354302;28;96843;-81
2022/04/08 13:20:44;;;;;;;2.45;0.90;;;17.80;47.50;;;16.59;36.45;98771.94;10393604;28;96814;-80
2022/04/08 13:25:47;;;;;;;2.47;0.90;;;17.80;48.10;;;16.70;35.71;98771.09;10357921;28;96723;-82
2022/04/08 13:30:50;;;;;;;2.70;1.30;;;17.90;47.80;;;16.84;35.23;98750.94;10356283;28;96581;-81
2022/04/08 13:35:56;;;;;;;1.70;0.80;;;18.10;47.70;;;17.17;35.83;98741.25;10358424;28;96562;-80
2022/04/08 13:41:01;;;;;;;3.67;0.90;;;18.30;47.90;;;17.54;35.60;98736.13;10367594;28;96612;-81
2022/04/08 13:46:04;;;;;;;2.45;1.00;;;18.70;47.70;;;17.63;35.16;98739.19;10363906;28;96554;-80
2022/04/08 13:51:07;;;;;;;3.08;0.70;;;18.90;47.30;;;17.38;34.78;98728.91;10399746;28;96476;-80
2022/04/08 13:56:10;;;;;;;1.42;0.50;;;18.80;46.80;;;17.21;35.76;98720.06;10385903;28;96667;-82
2022/04/08 14:01:13;;;;;;;1.88;0.60;;;18.60;47.50;;;17.13;36.10;98710.59;10332431;28;97043;-81
2022/04/08 14:06:16;;;;;;;3.80;1.30;;;18.50;47.80;;;16.90;36.78;98703.53;10326153;28;97167;-81
2022/04/08 14:11:20;;;;;;;9.02;3.08;;;18.30;48.20;;;16.82;37.28;98685.16;10312734;28;96503;-81
2022/04/08 14:16:23;;;;;;;3.00;1.60;;;18.20;48.70;;;16.76;37.28;98676.22;10356211;28;96760;-80
2022/04/08 14:21:27;;;;;;;6.72;1.50;;;18.10;49.00;;;16.74;37.07;98667.63;10323426;28;96695;-81
2022/04/08 14:26:29;;;;;;;6.25;1.33;;;18.10;49.00;;;16.71;37.81;98670.78;10349730;28;96408;-80
2022/04/08 14:31:33;;;;;;;5.97;1.27;;;18.00;49.30;;;16.79;37.21;98656.97;10341510;28;96563;-80
2022/04/08 14:36:37;;;;;;;5.20;1.70;;;18.10;49.20;;;16.85;36.88;98639.91;10339308;28;96692;-80
2022/04/08 14:41:42;;;;;;;4.38;1.50;;;18.10;48.90;;;16.90;37.08;98628.41;10372895;28;96758;-81
2022/04/08 14:46:45;;;;;;;5.57;1.48;;;18.20;49.00;;;16.80;37.41;98620.22;10396151;28;96359;-80
2022/04/08 14:51:48;;;;;;;4.55;1.25;;;18.20;49.20;;;16.55;37.66;98625.97;10355659;28;96452;-80
2022/04/08 14:56:52;;;;;;;4.07;1.05;;;18.00;49.50;;;16.29;38.67;98592.59;10341149;28;96410;-81
2022/04/08 15:01:55;;;;;;;2.67;1.00;;;17.70;50.20;;;16.12;39.58;98575.69;10355106;28;96449;-81
2022/04/08 15:06:58;;;;;;;7.55;1.70;;;17.50;50.80;;;16.01;39.85;98558.63;10363981;28;96533;-80
2022/04/08 15:12:01;;;;;;;2.83;1.70;;;17.40;51.40;;;15.89;40.40;98553.34;10353206;28;96715;-80
2022/04/08 15:17:04;;;;;;;4.63;1.92;;;17.30;51.80;;;15.76;41.15;98570.53;10373251;28;96581;-81
2022/04/08 15:22:07;;;;;;;3.53;2.13;;;17.10;52.30;;;15.64;41.81;98574.34;10362848;28;96570;-81
2022/04/08 15:27:30;;;;;;;5.85;2.38;;;17.00;53.00;;;15.53;42.63;98570.63;10378335;28;96642;-80
2022/04/08 15:32:33;;;;;;;4.75;1.90;;;16.90;53.70;;;15.47;44.00;98551.00;10354978;28;96581;-80
2022/04/08 15:37:42;;;;;;;4.47;2.50;;;16.80;54.60;;;15.47;44.30;98547.50;10315300;28;97203;-80
2022/04/08 15:42:45;;;;;;;10.00;3.17;;;16.80;55.00;;;15.42;44.72;98542.88;10340418;28;96717;-81
2022/04/08 15:47:48;;;;;;;7.60;2.88;;;16.80;55.70;;;15.37;45.20;98550.81;10351640;28;96497;-80
2022/04/08 15:52:51;;;;;;;5.60;2.95;;;16.70;56.00;;;15.34;46.08;98543.25;10340053;28;97334;-80
2022/04/08 15:57:54;;;;;;;8.43;3.25;;;16.70;56.40;;;15.30;46.34;98535.94;10373622;28;96580;-80
2022/04/08 16:02:58;;;;;;;8.32;2.83;;;16.70;56.60;;;15.30;46.83;98535.94;10349877;28;96523;-80
2022/04/08 16:08:01;;;;;;;7.95;4.05;;;16.70;57.10;;;15.25;47.70;98533.97;10363697;28;96555;-80
2022/04/08 16:13:06;;;;;;;9.52;4.50;;;16.70;57.90;;;15.22;48.02;98521.88;10363648;28;96562;-80
2022/04/08 16:18:09;;;;;;;6.80;4.10;;;16.70;58.30;;;15.19;48.75;98503.63;10354346;28;96436;-80
2022/04/08 16:23:12;;;;;;;8.05;4.82;;;16.60;58.90;;;15.15;49.01;98499.00;10365617;28;96594;-80
2022/04/08 16:28:14;;;;;;;7.45;4.53;;;16.60;59.10;;;15.12;50.07;98497.63;10355186;28;98235;-79
2022/04/08 16:33:18;;;;;;;7.50;4.55;;;16.60;59.80;;;15.09;50.75;98492.72;10346537;28;98006;-80
2022/04/08 16:38:22;;;;;;;7.45;4.57;;;16.50;60.30;;;15.04;51.54;98508.69;10355751;28;96427;-79
2022/04/08 16:43:25;;;;;;;11.20;5.35;;;16.50;60.80;;;15.02;51.97;98504.63;10346654;28;96625;-80
2022/04/08 16:48:28;;;;;;;12.85;6.00;;;16.50;61.50;;;15.01;52.65;98503.00;10364362;28;96453;-80
2022/04/08 16:53:32;;;;;;;9.40;5.82;;;16.50;62.50;;;14.98;53.27;98499.75;10379625;28;96646;-80
2022/04/08 16:58:35;;;;;;;9.85;6.25;;;16.40;62.50;;;14.96;53.48;98480.44;10360786;28;96566;-81
2022/04/08 17:03:39;;;;;;;11.80;5.97;;;16.40;63.00;;;14.93;53.47;98485.44;10340336;28;96595;-82
2022/04/08 17:08:44;;;;;;;11.38;5.20;;;16.40;63.10;;;14.89;53.82;98477.09;10356911;28;98002;-81
2022/04/08 17:13:47;;;;;;;11.23;5.50;;;16.40;63.70;;;14.86;54.25;98469.53;10350824;28;96646;-81
2022/04/08 17:19:10;;;;;;;12.07;5.85;;;16.40;64.00;;;14.81;54.71;98463.28;10313388;28;96594;-81
2022/04/08 17:24:15;;;;;;;9.60;5.68;;;16.40;64.60;;;14.74;55.22;98466.09;10351203;28;96547;-80
2022/04/08 17:29:18;;;;;;;12.10;6.20;;;16.30;65.10;;;14.66;55.61;98464.63;10364606;28;98219;-81
2022/04/08 17:34:21;;;;;;;10.68;6.70;;;16.30;65.80;;;14.58;56.18;98456.16;10339367;28;96999;-80
2022/04/08 17:39:24;;;;;;;14.93;7.40;;;16.20;66.50;;;14.52;56.59;98455.25;10366915;28;96755;-81
2022/04/08 17:44:27;;;;;;;16.33;9.13;;;16.10;67.00;;;14.46;57.47;98450.81;10372469;28;96592;-80
2022/04/08 17:49:31;;;;;;;14.85;8.15;;;16.00;67.40;;;14.41;58.29;98448.84;10349044;28;96644;-80
2022/04/08 17:54:34;;;;;;;17.13;7.63;;;16.00;68.60;;;14.41;59.20;98437.34;10368972;28;96812;-80
2022/04/08 17:59:37;;;;;;;12.18;6.72;;;16.00;69.40;;;14.42;59.24;98431.75;10376771;28;96649;-80
2022/04/08 18:04:41;;;;;;;10.50;6.07;;;15.90;70.90;;;14.45;60.02;98436.63;10359100;28;96649;-80
2022/04/08 18:09:47;;;;;;;13.82;6.22;;;15.90;72.30;;;14.48;60.36;98431.88;10350174;28;96594;-81
2022/04/08 18:14:50;;;;;;;14.25;6.80;;;15.90;73.50;;;14.51;60.57;98444.75;10338256;28;97343;-81
2022/04/08 18:19:53;;;;;;;10.57;5.05;;;15.90;74.20;;;14.52;60.71;98430.38;10333063;28;97537;-80
2022/04/08 18:24:56;;;;;;;12.35;5.25;;;16.00;74.40;;;14.53;60.86;98432.81;10301289;28;98314;-81
2022/04/08 18:29:59;;;;;;;12.40;5.70;;;15.90;76.00;;;14.56;61.14;98410.94;10331654;28;96551;-80
2022/04/08 18:35:11;;;;;;;10.77;4.47;;;16.00;75.90;;;14.57;61.21;98427.78;10356415;28;96744;-81
2022/04/08 18:40:14;;;;;;;10.95;4.90;;;16.00;76.80;;;14.58;61.57;98413.41;10367037;28;96973;-82
2022/04/08 18:45:17;;;;;;;10.60;4.68;;;16.00;77.10;;;14.58;61.54;98426.75;10342535;28;96555;-81
2022/04/08 18:50:20;;;;;;;10.93;4.57;;;16.00;78.70;;;14.59;61.80;98418.50;10368464;28;96584;-81
2022/04/08 18:55:23;;;;;;;10.15;4.70;;;16.00;79.20;;;14.62;61.64;98415.34;10383843;28;96730;-81
2022/04/08 19:00:27;;;;;;;6.60;3.55;;;16.00;79.80;;;14.64;61.79;98407.09;10369418;28;98031;-80
2022/04/08 19:05:30;;;;;;;8.48;3.55;;;16.10;79.90;;;14.64;61.34;98402.56;10381331;28;96462;-81
2022/04/08 19:10:33;;;;;;;5.45;2.85;;;16.00;80.50;;;14.68;60.42;98402.88;10335142;28;98743;-78
2022/04/08 19:15:36;;;;;;;4.88;2.00;;;16.10;80.20;;;14.85;58.98;98394.91;10373214;28;97140;-82
2022/04/08 19:20:40;;;;;;;2.85;1.73;;;16.20;79.40;;;15.03;57.99;98393.91;10341016;28;96540;-81
2022/04/08 19:25:43;;;;;;;6.38;1.55;;;16.30;78.60;;;15.17;56.94;98384.50;10336340;28;96503;-79
2022/04/08 19:30:47;;;;;;;3.38;1.48;;;16.40;77.60;;;15.32;56.16;98366.03;10361092;28;98305;-81
2022/04/08 19:35:50;;;;;;;3.95;1.48;;;16.50;76.50;;;15.41;55.35;98369.13;10361917;28;96582;-81
2022/04/08 19:40:53;;;;;;;2.80;1.40;;;16.60;75.80;;;15.51;55.00;98364.75;10345513;28;96565;-81
2022/04/08 19:45:56;;;;;;;4.80;1.40;;;16.70;75.00;;;15.60;54.13;98372.38;10342089;28;97621;-81
2022/04/08 19:51:00;;;;;;;3.60;1.00;;;16.80;74.20;;;15.70;53.93;98365.31;10356271;28;96619;-81
2022/04/08 19:56:05;;;;;;;4.18;1.20;;;16.90;73.50;;;15.77;53.51;98355.28;10351395;28;96623;-81
2022/04/08 20:01:07;;;;;;;3.25;1.10;;;16.90;73.20;;;15.86;52.79;98352.16;10334155;28;96799;-80
2022/04/08 20:06:10;;;;;;;4.25;1.48;;;17.00;72.40;;;15.89;52.74;98349.78;10336836;28;96712;-81
2022/04/08 20:11:13;;;;;;;3.22;1.30;;;17.00;72.10;;;15.96;52.49;98338.91;10366746;28;96788;-80
2022/04/08 20:16:16;;;;;;;2.83;1.73;;;17.10;71.80;;;15.93;53.65;98344.75;10338294;28;96738;-80
2022/04/08 20:21:20;;;;;;;5.28;0.98;;;17.10;72.60;;;15.79;54.49;98339.75;10374263;28;96678;-82
2022/04/08 20:26:23;;;;;;;4.85;1.08;;;17.00;73.60;;;15.60;56.66;98342.94;10337065;28;96686;-82
2022/04/08 20:31:26;;;;;;;2.72;1.02;;;16.90;75.80;;;15.34;57.83;98347.88;10371408;28;96832;-82
2022/04/08 20:36:29;;;;;;;4.05;0.90;;;16.70;77.10;;;15.17;58.33;98342.53;10360616;28;96635;-82
2022/04/08 20:41:32;;;;;;;2.38;1.13;;;16.50;78.40;;;15.05;58.01;98341.78;10396665;28;96589;-82
2022/04/08 20:46:35;;;;;;;2.25;1.08;;;16.40;78.10;;;15.02;58.17;98336.91;10383004;28;96871;-82
2022/04/08 20:51:39;;;;;;;4.43;1.65;;;16.30;78.70;;;15.03;58.78;98343.88;10375501;28;96641;-81
2022/04/08 20:56:42;;;;;;;2.20;1.15;;;16.30;79.00;;;15.03;58.46;98337.72;10360136;28;96691;-81
2022/04/08 21:01:45;;;;;;;3.53;0.90;;;16.30;79.20;;;15.02;58.57;98361.00;10344499;28;97226;-81
2022/04/08 21:06:50;;;;;;;2.67;0.90;;;16.30;79.20;;;15.08;57.72;98343.16;10343874;28;96693;-81